Time;durP1;ratioP1;P1;durP2;ratioP2;P2;SDS_P1;SDS_P2;PMS_P1;PMS_P2;Temp;Humidity;BMP_temperature;BMP_pressure;BME280_temperature;BME280_humidity;BME280_pressure;Samples;Min_cycle;Max_cycle;Signal;HPM_P1;HPM_P2
2023/02/08 00:01:17;;;;;;;83.27;30.23;;;-3.30;99.90;;;;;;4379604;28;659756;-70
2023/02/08 00:04:05;;;;;;;87.30;30.67;;;-3.30;99.90;;;;;;4410153;28;658443;-70
2023/02/08 00:06:52;;;;;;;93.50;31.97;;;-3.30;99.90;;;;;;4384306;28;659078;-69
2023/02/08 00:09:39;;;;;;;87.57;31.13;;;-3.30;99.90;;;;;;4411450;28;659565;-69
2023/02/08 00:12:28;;;;;;;78.40;29.40;;;-3.30;99.90;;;;;;4377546;28;660084;-69
2023/02/08 00:15:17;;;;;;;85.55;31.95;;;-3.30;99.90;;;;;;4391195;28;658316;-70
2023/02/08 00:18:04;;;;;;;83.10;31.02;;;-3.30;99.90;;;;;;4397476;28;658490;-69
2023/02/08 00:20:51;;;;;;;95.17;31.33;;;-3.20;99.90;;;;;;4378748;28;658361;-70
2023/02/08 00:23:39;;;;;;;78.77;31.00;;;-3.30;99.90;;;;;;4395025;28;658950;-69
2023/02/08 00:26:26;;;;;;;93.33;32.27;;;-3.30;99.90;;;;;;4386973;28;658487;-70
2023/02/08 00:29:13;;;;;;;86.23;31.77;;;-3.30;99.90;;;;;;4406862;28;659913;-69
2023/02/08 00:32:02;;;;;;;86.45;31.60;;;-3.30;99.90;;;;;;4387469;28;658871;-70
2023/02/08 00:34:49;;;;;;;94.53;32.30;;;-3.30;99.90;;;;;;4402989;28;658661;-69
2023/02/08 00:37:36;;;;;;;89.17;32.13;;;-3.30;99.90;;;;;;4385662;28;658296;-69
2023/02/08 00:40:23;;;;;;;91.47;33.00;;;-3.30;99.90;;;;;;4406710;28;659219;-69
2023/02/08 00:43:11;;;;;;;87.40;30.40;;;-3.30;99.90;;;;;;4388390;28;658285;-69
2023/02/08 00:45:58;;;;;;;93.50;31.53;;;-3.30;99.90;;;;;;4402085;28;659051;-69
2023/02/08 00:48:47;;;;;;;89.83;32.53;;;-3.20;99.90;;;;;;4385944;28;658411;-70
2023/02/08 00:51:34;;;;;;;84.57;30.80;;;-3.20;99.90;;;;;;4404927;28;658812;-69
2023/02/08 00:54:22;;;;;;;82.27;31.90;;;-3.30;99.90;;;;;;4387836;28;658441;-68
2023/02/08 00:57:09;;;;;;;82.20;29.80;;;-3.30;99.90;;;;;;4387920;28;659061;-70
2023/02/08 00:59:56;;;;;;;95.50;31.33;;;-3.30;99.90;;;;;;4382956;28;658866;-69
2023/02/08 01:02:43;;;;;;;90.07;29.80;;;-3.20;99.90;;;;;;4408999;28;659808;-69
2023/02/08 01:05:32;;;;;;;77.90;28.17;;;-3.20;99.90;;;;;;4389207;28;658462;-70
2023/02/08 01:08:20;;;;;;;77.90;29.93;;;-3.20;99.90;;;;;;4403290;28;658430;-69
2023/02/08 01:11:08;;;;;;;83.97;25.93;;;-3.10;99.90;;;;;;4384508;28;659898;-69
2023/02/08 01:13:57;;;;;;;76.07;27.80;;;-3.20;99.90;;;;;;4385154;28;658880;-70
2023/02/08 01:16:44;;;;;;;78.20;28.50;;;-3.10;99.90;;;;;;4413062;28;658255;-69
2023/02/08 01:19:32;;;;;;;77.73;27.13;;;-3.10;99.90;;;;;;4381758;28;658204;-69
2023/02/08 01:22:20;;;;;;;72.47;25.87;;;-3.10;99.90;;;;;;4407428;28;658570;-69
2023/02/08 01:25:08;;;;;;;73.20;27.10;;;-3.10;99.90;;;;;;4379250;28;659796;-69
2023/02/08 01:27:56;;;;;;;66.60;27.10;;;-3.10;99.90;;;;;;4394381;28;659462;-70
2023/02/08 01:30:43;;;;;;;79.13;27.00;;;-3.10;99.90;;;;;;4408611;28;659599;-69
2023/02/08 01:33:30;;;;;;;66.27;25.23;;;-3.10;99.90;;;;;;4393117;28;658739;-69
2023/02/08 01:36:17;;;;;;;75.00;27.50;;;-3.10;99.90;;;;;;4412816;28;659336;-69
2023/02/08 01:39:07;;;;;;;68.40;25.20;;;-3.10;99.90;;;;;;4400387;28;658652;-69
2023/02/08 01:41:54;;;;;;;67.13;25.53;;;-3.10;99.90;;;;;;4408385;28;658550;-69
2023/02/08 01:45:19;;;;;;;62.77;23.80;;;-3.10;99.90;;;;;;4384470;28;658695;-69
2023/02/08 01:48:08;;;;;;;53.73;21.13;;;-3.10;99.90;;;;;;4358719;28;659145;-69
2023/02/08 01:50:57;;;;;;;57.40;22.40;;;-3.00;99.90;;;;;;4385699;28;659025;-70
2023/02/08 01:53:44;;;;;;;53.47;19.93;;;-3.00;99.90;;;;;;4400534;28;658608;-69
2023/02/08 01:56:35;;;;;;;49.23;19.43;;;-3.00;99.90;;;;;;4390114;28;659622;-69
2023/02/08 01:59:25;;;;;;;50.05;18.15;;;-2.90;99.90;;;;;;4387774;28;658815;-69
2023/02/08 02:02:14;;;;;;;50.17;18.67;;;-2.90;99.90;;;;;;4388612;28;659040;-69
2023/02/08 02:05:01;;;;;;;48.63;17.30;;;-2.80;99.90;;;;;;4387249;28;658500;-69
2023/02/08 02:07:48;;;;;;;58.87;19.23;;;-2.80;99.90;;;;;;4408404;28;659633;-69
2023/02/08 02:10:36;;;;;;;50.00;19.07;;;-2.80;99.90;;;;;;4387572;28;658681;-70
2023/02/08 02:13:26;;;;;;;43.37;16.20;;;-2.80;99.90;;;;;;4406256;28;658642;-69
2023/02/08 02:16:13;;;;;;;43.07;15.50;;;-2.70;99.90;;;;;;4342134;28;659256;-70
2023/02/08 02:19:00;;;;;;;47.58;16.65;;;-2.70;99.90;;;;;;4214115;28;658658;-70
2023/02/08 02:21:54;;;;;;;44.13;16.27;;;-2.70;99.90;;;;;;4240477;28;658864;-70
2023/02/08 02:25:19;;;;;;;41.17;16.42;;;-2.70;99.90;;;;;;4391080;28;658477;-69
2023/02/08 02:28:21;;;;;;;56.70;18.53;;;-2.60;99.90;;;;;;4384323;28;658794;-69
2023/02/08 02:31:40;;;;;;;53.10;18.00;;;-2.60;99.90;;;;;;4384712;28;659471;-69
2023/02/08 02:34:32;;;;;;;57.80;19.27;;;-2.60;99.90;;;;;;4382102;28;659242;-69
2023/02/08 02:37:28;;;;;;;48.00;17.20;;;-2.60;99.90;;;;;;4386496;28;658669;-69
2023/02/08 02:40:18;;;;;;;52.63;17.37;;;-2.60;99.90;;;;;;4367982;28;658932;-70
2023/02/08 02:46:22;;;;;;;47.23;18.37;;;-2.60;99.90;;;;;;4378687;28;659679;-69
2023/02/08 02:49:12;;;;;;;42.00;16.57;;;-2.60;99.90;;;;;;4383995;28;659042;-69
2023/02/08 02:52:03;;;;;;;54.10;19.30;;;-2.60;99.90;;;;;;4383430;28;659210;-69
2023/02/08 02:54:51;;;;;;;46.20;17.57;;;-2.50;99.90;;;;;;4367882;28;658858;-69
2023/02/08 02:57:39;;;;;;;59.50;20.03;;;-2.50;99.90;;;;;;4406859;28;659907;-68
2023/02/08 03:00:26;;;;;;;55.10;19.50;;;-2.50;99.90;;;;;;4385651;28;659094;-69
2023/02/08 03:03:14;;;;;;;49.77;18.83;;;-2.50;99.90;;;;;;4397674;28;659833;-69
2023/02/08 03:06:03;;;;;;;55.90;19.47;;;-2.50;99.90;;;;;;4389404;28;660096;-70
2023/02/08 03:09:19;;;;;;;47.00;19.27;;;-2.60;99.90;;;;;;4388696;28;658523;-70
2023/02/08 03:12:13;;;;;;;52.27;19.57;;;-2.50;99.90;;;;;;4389044;28;658481;-69
2023/02/08 03:15:05;;;;;;;55.60;20.77;;;-2.60;99.90;;;;;;4371307;28;658721;-69
2023/02/08 03:18:00;;;;;;;69.70;21.90;;;-2.60;99.90;;;;;;4385296;28;659571;-68
2023/02/08 03:20:50;;;;;;;54.77;20.43;;;-2.60;99.90;;;;;;4382676;28;659485;-69
2023/02/08 03:23:40;;;;;;;59.77;20.57;;;-2.50;99.90;;;;;;4384061;28;659151;-69
2023/02/08 03:26:31;;;;;;;57.95;21.38;;;-2.50;99.90;;;;;;4386728;28;659458;-69
2023/02/08 03:29:22;;;;;;;63.87;21.60;;;-2.50;99.90;;;;;;4376680;28;659747;-69
2023/02/08 03:32:10;;;;;;;60.30;21.50;;;-2.50;99.90;;;;;;4389274;28;658680;-69
2023/02/08 03:35:00;;;;;;;49.97;20.20;;;-2.50;99.90;;;;;;4377524;28;660052;-70
2023/02/08 03:37:49;;;;;;;48.50;18.27;;;-2.50;99.90;;;;;;4384915;28;660285;-69
2023/02/08 03:40:38;;;;;;;58.00;22.07;;;-2.50;99.90;;;;;;4387946;28;658523;-69
2023/02/08 03:43:29;;;;;;;67.57;22.90;;;-2.50;99.90;;;;;;4393024;28;658718;-69
2023/02/08 03:46:18;;;;;;;62.57;24.37;;;-2.40;99.90;;;;;;4388334;28;658673;-69
2023/02/08 03:49:07;;;;;;;59.90;23.37;;;-2.50;99.90;;;;;;4378937;28;659454;-69
2023/02/08 03:51:54;;;;;;;65.60;25.33;;;-2.40;99.90;;;;;;4404359;28;658572;-69
2023/02/08 03:54:44;;;;;;;79.23;25.07;;;-2.40;99.90;;;;;;4382824;28;659321;-68
2023/02/08 03:57:33;;;;;;;56.40;23.03;;;-2.40;99.90;;;;;;4379350;28;658416;-69
2023/02/08 04:00:22;;;;;;;69.17;25.53;;;-2.40;99.90;;;;;;4397405;28;659766;-70
2023/02/08 04:03:12;;;;;;;72.37;26.47;;;-2.40;99.90;;;;;;4397093;28;658434;-68
2023/02/08 04:05:59;;;;;;;57.23;25.30;;;-2.40;99.90;;;;;;4386311;28;658409;-69
2023/02/08 04:08:46;;;;;;;78.87;29.37;;;-2.30;99.90;;;;;;4378004;28;658644;-69
2023/02/08 04:11:34;;;;;;;75.90;26.90;;;-2.30;99.90;;;;;;4405649;28;659084;-69
2023/02/08 04:14:21;;;;;;;71.90;25.33;;;-2.30;99.90;;;;;;4386490;28;658494;-69
2023/02/08 04:17:09;;;;;;;64.60;24.10;;;-2.30;99.90;;;;;;4409064;28;659002;-68
2023/02/08 04:19:57;;;;;;;73.67;26.07;;;-2.30;99.90;;;;;;4380082;28;659160;-69
2023/02/08 04:22:44;;;;;;;70.63;25.37;;;-2.30;99.90;;;;;;4403339;28;658414;-69
2023/02/08 04:25:31;;;;;;;68.80;25.53;;;-2.30;99.90;;;;;;4384618;28;658640;-69
2023/02/08 04:28:18;;;;;;;79.00;27.40;;;-2.30;99.90;;;;;;4407416;28;659630;-68
2023/02/08 04:31:06;;;;;;;73.20;26.93;;;-2.30;99.90;;;;;;4387731;28;658930;-69
2023/02/08 04:33:54;;;;;;;70.73;25.77;;;-2.30;99.90;;;;;;4406227;28;659470;-69
2023/02/08 04:36:41;;;;;;;69.13;25.47;;;-2.30;99.90;;;;;;4378248;28;658749;-69
2023/02/08 04:39:29;;;;;;;83.23;25.70;;;-2.30;99.90;;;;;;4408187;28;658507;-69
2023/02/08 04:42:16;;;;;;;64.23;25.77;;;-2.30;99.90;;;;;;4387653;28;658654;-69
2023/02/08 04:45:03;;;;;;;75.07;27.40;;;-2.30;99.90;;;;;;4400993;28;659529;-68
2023/02/08 04:47:51;;;;;;;68.17;24.10;;;-2.30;99.90;;;;;;4398080;28;659220;-69
2023/02/08 04:50:39;;;;;;;70.00;26.10;;;-2.30;99.90;;;;;;4409220;28;659478;-68
2023/02/08 04:53:26;;;;;;;65.97;24.70;;;-2.30;99.90;;;;;;4382908;28;658515;-69
2023/02/08 04:56:14;;;;;;;79.93;26.53;;;-2.20;99.90;;;;;;4406166;28;658440;-70
2023/02/08 04:59:01;;;;;;;72.43;25.70;;;-2.30;99.90;;;;;;4388752;28;659057;-69
2023/02/08 05:01:49;;;;;;;76.20;26.23;;;-2.20;99.90;;;;;;4406207;28;658551;-69
2023/02/08 05:04:36;;;;;;;60.67;24.97;;;-2.20;99.90;;;;;;4391616;28;658949;-69
2023/02/08 05:07:24;;;;;;;72.72;26.50;;;-2.20;99.90;;;;;;4413047;28;658482;-68
2023/02/08 05:10:12;;;;;;;78.30;25.50;;;-2.20;99.90;;;;;;4391923;28;659057;-69
2023/02/08 05:12:59;;;;;;;65.43;26.67;;;-2.20;99.90;;;;;;4406460;28;658891;-69
2023/02/08 05:15:46;;;;;;;76.97;31.23;;;-2.20;99.90;;;;;;4392022;28;658529;-69
2023/02/08 05:18:33;;;;;;;79.72;29.25;;;-2.20;99.90;;;;;;4414204;28;660357;-69
2023/02/08 05:21:22;;;;;;;78.53;28.20;;;-2.20;99.90;;;;;;4391995;28;659378;-69
2023/02/08 05:24:11;;;;;;;94.03;35.23;;;-2.20;99.90;;;;;;4414625;28;658430;-69
2023/02/08 05:26:58;;;;;;;91.63;39.17;;;-2.10;99.90;;;;;;4391885;28;659543;-68
2023/02/08 05:29:46;;;;;;;76.90;30.63;;;-2.20;99.90;;;;;;4391846;28;658795;-69
2023/02/08 05:32:33;;;;;;;85.57;29.70;;;-2.20;99.90;;;;;;4414833;28;658897;-69
2023/02/08 05:35:20;;;;;;;64.50;26.13;;;-2.10;99.90;;;;;;4382029;28;658745;-70
2023/02/08 05:38:07;;;;;;;69.03;27.67;;;-2.20;99.90;;;;;;4415016;28;659458;-69
2023/02/08 05:40:57;;;;;;;94.37;29.83;;;-2.20;99.90;;;;;;4408555;28;658564;-69
2023/02/08 05:43:44;;;;;;;81.90;26.77;;;-2.20;99.90;;;;;;4405778;28;658869;-68
2023/02/08 05:46:31;;;;;;;69.50;26.77;;;-2.10;99.90;;;;;;4391737;28;658511;-69
2023/02/08 05:49:19;;;;;;;66.47;25.93;;;-2.20;99.90;;;;;;4408521;28;658891;-68
2023/02/08 05:52:06;;;;;;;64.30;27.23;;;-2.10;99.90;;;;;;4391715;28;658393;-69
2023/02/08 05:54:53;;;;;;;79.13;28.10;;;-2.10;99.90;;;;;;4407391;28;659127;-69
2023/02/08 05:57:42;;;;;;;105.37;31.93;;;-2.10;99.90;;;;;;4390955;28;658692;-69
2023/02/08 06:00:29;;;;;;;89.60;29.80;;;-2.10;99.90;;;;;;4407847;28;660570;-69
2023/02/08 06:03:16;;;;;;;75.05;27.85;;;-2.10;99.90;;;;;;4388399;28;658566;-69
2023/02/08 06:06:04;;;;;;;66.70;25.77;;;-2.10;99.90;;;;;;4403424;28;658702;-69
2023/02/08 06:08:51;;;;;;;63.50;25.27;;;-2.10;99.90;;;;;;4381073;28;659177;-69
2023/02/08 06:11:38;;;;;;;53.27;22.00;;;-2.10;99.90;;;;;;4409804;28;659748;-69
2023/02/08 06:14:27;;;;;;;57.55;23.17;;;-2.10;99.90;;;;;;4388964;28;659008;-69
2023/02/08 06:17:14;;;;;;;69.70;23.83;;;-2.10;99.90;;;;;;4393926;28;658719;-69
2023/02/08 06:20:01;;;;;;;57.77;22.60;;;-2.10;99.90;;;;;;4388020;28;658529;-70
2023/02/08 06:22:48;;;;;;;57.87;23.27;;;-2.10;99.90;;;;;;4399836;28;658832;-69
2023/02/08 06:25:36;;;;;;;60.80;22.97;;;-2.10;99.90;;;;;;4384501;28;659050;-70
2023/02/08 06:28:23;;;;;;;54.83;22.17;;;-2.10;99.90;;;;;;4408375;28;659061;-70
2023/02/08 06:31:12;;;;;;;53.33;21.73;;;-2.10;99.90;;;;;;4390977;28;659644;-69
2023/02/08 06:33:59;;;;;;;61.70;21.83;;;-2.10;99.90;;;;;;4392321;28;659095;-69
2023/02/08 06:36:46;;;;;;;51.47;21.67;;;-2.10;99.90;;;;;;4379049;28;658571;-69
2023/02/08 06:39:33;;;;;;;64.72;22.90;;;-2.10;99.90;;;;;;4393026;28;660203;-70
2023/02/08 06:42:21;;;;;;;44.63;20.17;;;-2.10;99.90;;;;;;4365232;28;659229;-69
2023/02/08 06:45:09;;;;;;;61.30;21.87;;;-2.10;99.90;;;;;;4385838;28;658856;-69
2023/02/08 06:47:57;;;;;;;56.13;21.20;;;-2.10;99.90;;;;;;4362565;28;659032;-69
2023/02/08 06:50:45;;;;;;;57.40;22.17;;;-2.20;99.90;;;;;;4385857;28;658428;-69
2023/02/08 06:53:32;;;;;;;64.40;24.03;;;-2.20;99.90;;;;;;4363293;28;659557;-70
2023/02/08 06:56:19;;;;;;;63.07;23.93;;;-2.20;99.90;;;;;;4392525;28;658310;-69
2023/02/08 06:59:06;;;;;;;66.40;27.17;;;-2.20;99.90;;;;;;4363707;28;658525;-69
2023/02/08 07:01:53;;;;;;;67.38;25.98;;;-2.10;99.90;;;;;;4390672;28;660125;-69
2023/02/08 07:04:42;;;;;;;68.57;27.20;;;-2.20;99.90;;;;;;4370058;28;658502;-70
2023/02/08 07:07:29;;;;;;;72.93;29.23;;;-2.20;99.90;;;;;;4381508;28;657943;-69
2023/02/08 07:10:17;;;;;;;81.40;30.30;;;-2.10;99.90;;;;;;4360262;28;658972;-69
2023/02/08 07:13:04;;;;;;;73.63;29.07;;;-2.00;99.90;;;;;;4388054;28;658918;-69
2023/02/08 07:15:51;;;;;;;87.00;32.25;;;-2.00;99.90;;;;;;4370719;28;658689;-69
2023/02/08 07:18:38;;;;;;;72.93;29.87;;;-1.80;99.90;;;;;;4393520;28;659473;-69
2023/02/08 07:21:27;;;;;;;70.27;28.93;;;-1.80;99.90;;;;;;4360744;28;658921;-69
2023/02/08 07:24:14;;;;;;;78.70;31.13;;;-1.60;99.90;;;;;;4383119;28;658815;-69
2023/02/08 07:27:02;;;;;;;81.40;29.17;;;-1.40;99.90;;;;;;4361772;28;658599;-69
2023/02/08 07:29:49;;;;;;;68.43;26.77;;;-1.20;99.90;;;;;;4383388;28;658447;-69
2023/02/08 07:32:36;;;;;;;75.20;29.50;;;-1.00;99.90;;;;;;4377559;28;658606;-69
2023/02/08 07:35:23;;;;;;;72.50;30.30;;;-0.80;99.90;;;;;;4403764;28;658651;-70
2023/02/08 07:38:12;;;;;;;76.93;29.07;;;-0.90;99.90;;;;;;4382810;28;658295;-69
2023/02/08 07:41:03;;;;;;;67.67;26.53;;;-1.10;99.90;;;;;;4404900;28;658872;-69
2023/02/08 07:43:50;;;;;;;68.47;27.37;;;-1.10;99.90;;;;;;4364975;28;659681;-70
2023/02/08 07:46:37;;;;;;;66.67;27.27;;;-1.30;99.90;;;;;;4406526;28;659855;-68
2023/02/08 07:49:25;;;;;;;75.53;29.93;;;-1.40;99.90;;;;;;4401688;28;660178;-70
2023/02/08 07:52:12;;;;;;;76.73;29.17;;;-1.40;99.90;;;;;;4412811;28;659297;-69
2023/02/08 07:55:02;;;;;;;74.63;28.87;;;-1.40;99.90;;;;;;4406946;28;659522;-70
2023/02/08 07:57:49;;;;;;;73.40;29.10;;;-1.30;99.90;;;;;;4411265;28;658912;-68
2023/02/08 08:00:36;;;;;;;71.60;30.13;;;-1.10;99.90;;;;;;4383379;28;659059;-69
2023/02/08 08:03:24;;;;;;;74.80;31.13;;;-0.90;99.90;;;;;;4396918;28;658401;-69
2023/02/08 08:06:11;;;;;;;65.33;25.70;;;-0.60;1.00;;;;;;4390053;28;658866;-69
2023/02/08 08:08:58;;;;;;;65.53;27.13;;;-0.40;99.90;;;;;;4410960;28;657319;-69
2023/02/08 08:11:47;;;;;;;66.73;28.43;;;-0.50;1.00;;;;;;4389857;28;658390;-70
2023/02/08 08:14:34;;;;;;;68.00;27.60;;;-0.70;1.00;;;;;;4407361;28;657606;-69
2023/02/08 08:17:21;;;;;;;65.00;25.77;;;-0.60;99.90;;;;;;4378726;28;658194;-70
2023/02/08 08:20:09;;;;;;;75.07;30.40;;;-0.60;1.00;;;;;;4336296;28;659205;-71
2023/02/08 08:22:57;;;;;;;68.27;27.87;;;-0.60;1.00;;;;;;4244383;28;657384;-70
2023/02/08 08:25:44;;;;;;;65.93;27.30;;;-0.50;99.90;;;;;;4264788;28;657593;-70
2023/02/08 08:28:33;;;;;;;72.75;29.40;;;-0.40;99.90;;;;;;4327530;28;658930;-70
2023/02/08 08:31:21;;;;;;;81.63;31.77;;;-0.10;99.90;;;;;;4393867;28;658691;-69
2023/02/08 08:34:08;;;;;;;76.90;29.53;;;-0.20;4.80;;;;;;4403125;28;659038;-70
2023/02/08 08:36:55;;;;;;;74.00;28.20;;;0.00;16.00;;;;;;4390349;28;658177;-70
2023/02/08 08:39:42;;;;;;;68.80;28.30;;;0.00;1.00;;;;;;4410983;28;658158;-70
2023/02/08 08:42:30;;;;;;;74.70;29.57;;;0.00;1.00;;;;;;4401447;28;658197;-70
2023/02/08 08:45:19;;;;;;;80.57;29.47;;;0.00;1.00;;;;;;4399924;28;656984;-69
2023/02/08 08:48:07;;;;;;;64.87;24.97;;;0.00;1.00;;;;;;4397470;28;657179;-69
2023/02/08 08:50:54;;;;;;;64.73;26.80;;;-0.10;1.00;;;;;;4415258;28;656519;-70
2023/02/08 08:53:41;;;;;;;66.23;28.20;;;0.00;1.00;;;;;;4387988;28;657673;-70
2023/02/08 08:56:29;;;;;;;73.37;27.70;;;-0.10;1.00;;;;;;4403084;28;657209;-70
2023/02/08 08:59:16;;;;;;;69.50;26.33;;;0.10;1.00;;;;;;4387475;28;657454;-71
2023/02/08 09:02:04;;;;;;;70.13;25.03;;;0.20;1.00;;;;;;4409302;28;656740;-72
2023/02/08 09:04:52;;;;;;;65.70;25.37;;;0.50;1.00;;;;;;4387921;28;656867;-70
2023/02/08 09:07:39;;;;;;;55.50;22.83;;;0.60;1.00;;;;;;4404982;28;657059;-70
2023/02/08 09:10:26;;;;;;;60.83;23.23;;;0.60;1.00;;;;;;4387216;28;656081;-70
2023/02/08 09:13:18;;;;;;;54.70;24.00;;;0.60;1.00;;;;;;4410199;28;657685;-70
2023/02/08 09:16:06;;;;;;;66.03;25.07;;;0.60;1.00;;;;;;4373922;28;656923;-71
2023/02/08 09:18:54;;;;;;;63.33;23.10;;;0.50;1.00;;;;;;4412894;28;657783;-73
2023/02/08 09:21:42;;;;;;;51.30;19.37;;;0.70;1.00;;;;;;4383307;28;656988;-74
2023/02/08 09:24:29;;;;;;;42.57;17.50;;;1.00;1.00;;;;;;4405801;28;657017;-72
2023/02/08 09:27:17;;;;;;;40.63;16.60;;;1.20;1.00;;;;;;4379861;28;656733;-73
2023/02/08 09:30:06;;;;;;;44.70;17.80;;;1.50;1.00;;;;;;4407577;28;656633;-73
2023/02/08 09:32:53;;;;;;;48.67;17.47;;;1.40;1.00;;;;;;4410591;28;657325;-72
2023/02/08 09:35:42;;;;;;;46.90;19.40;;;1.30;1.00;;;;;;4386480;28;656300;-73
2023/02/08 09:38:29;;;;;;;41.20;16.73;;;1.30;1.00;;;;;;4403184;28;656821;-73
2023/02/08 09:41:26;;;;;;;38.15;15.73;;;1.50;1.00;;;;;;4388140;28;656387;-72
2023/02/08 09:44:18;;;;;;;42.90;16.10;;;1.70;1.00;;;;;;4387342;28;656749;-73
2023/02/08 09:47:08;;;;;;;39.73;16.90;;;1.90;1.00;;;;;;4359337;28;656671;-73
2023/02/08 09:49:57;;;;;;;33.87;15.33;;;2.00;1.00;;;;;;4386493;28;656539;-74
2023/02/08 09:52:49;;;;;;;45.57;17.23;;;2.10;1.00;;;;;;4404807;28;656759;-73
2023/02/08 09:55:38;;;;;;;33.77;14.87;;;1.80;1.00;;;;;;4358586;28;656746;-73
2023/02/08 09:58:27;;;;;;;37.83;15.25;;;1.70;1.00;;;;;;4391133;28;657066;-73
2023/02/08 10:01:18;;;;;;;37.83;16.33;;;1.50;1.00;;;;;;4402824;28;655895;-73
2023/02/08 10:04:07;;;;;;;44.27;18.03;;;1.00;1.00;;;;;;4370618;28;657273;-73
2023/02/08 10:06:54;;;;;;;36.03;15.47;;;1.00;1.00;;;;;;4404135;28;657304;-73
2023/02/08 10:09:43;;;;;;;36.20;15.33;;;1.00;1.00;;;;;;4377062;28;656533;-73
2023/02/08 10:12:37;;;;;;;38.00;15.63;;;1.00;1.00;;;;;;4387861;28;656823;-73
2023/02/08 10:15:31;;;;;;;39.93;17.60;;;0.90;1.00;;;;;;4368991;28;656804;-74
2023/02/08 10:18:30;;;;;;;51.97;18.50;;;1.10;1.00;;;;;;4389600;28;656727;-71
2023/02/08 10:21:42;;;;;;;36.37;14.50;;;1.20;1.00;;;;;;4393630;28;656701;-71
2023/02/08 10:24:44;;;;;;;34.60;14.90;;;1.20;1.00;;;;;;4380181;28;656180;-72
2023/02/08 10:27:36;;;;;;;35.45;13.68;;;1.10;1.00;;;;;;4384797;28;657205;-72
2023/02/08 10:30:29;;;;;;;40.83;15.10;;;1.30;1.00;;;;;;4381165;28;657830;-72
2023/02/08 10:33:18;;;;;;;38.77;13.60;;;1.40;1.00;;;;;;4383140;28;656315;-72
2023/02/08 10:36:12;;;;;;;31.40;13.50;;;1.40;1.00;;;;;;4395629;28;656493;-72
2023/02/08 10:38:59;;;;;;;41.43;18.03;;;1.20;1.00;;;;;;4389600;28;657345;-72
2023/02/08 10:41:47;;;;;;;32.33;13.30;;;1.20;1.00;;;;;;4379675;28;656714;-72
2023/02/08 10:44:47;;;;;;;34.20;13.70;;;1.20;1.00;;;;;;4404028;28;656948;-72
2023/02/08 10:47:42;;;;;;;37.30;14.95;;;2.00;1.00;;;;;;4377587;28;657474;-72
2023/02/08 10:50:32;;;;;;;39.83;16.63;;;2.70;1.00;;;;;;4385563;28;656855;-71
2023/02/08 10:53:19;;;;;;;31.00;12.90;;;2.90;1.00;;;;;;4385226;28;657178;-72
2023/02/08 10:56:06;;;;;;;42.87;15.03;;;2.90;1.00;;;;;;4390780;28;656686;-72
2023/02/08 10:58:55;;;;;;;27.73;12.37;;;2.70;1.00;;;;;;4401826;28;657594;-72
2023/02/08 11:01:42;;;;;;;38.80;14.17;;;3.80;1.00;;;;;;4371898;28;657722;-71
2023/02/08 11:04:29;;;;;;;41.13;15.55;;;4.20;99.90;;;;;;4405875;28;656373;-72
2023/02/08 11:07:20;;;;;;;29.43;13.00;;;4.20;99.90;;;;;;4385416;28;658046;-71
2023/02/08 11:10:15;;;;;;;56.27;18.93;;;3.70;99.90;;;;;;4382686;28;658482;-72
2023/02/08 11:13:04;;;;;;;31.47;13.30;;;3.70;99.90;;;;;;4359035;28;657602;-71
2023/02/08 11:15:54;;;;;;;32.50;13.63;;;3.90;99.90;;;;;;4383255;28;658541;-71
2023/02/08 11:18:47;;;;;;;32.30;13.67;;;3.90;99.90;;;;;;4384069;28;657455;-71
2023/02/08 11:21:35;;;;;;;87.53;25.07;;;4.60;99.90;;;;;;4383874;28;657789;-71
2023/02/08 11:24:26;;;;;;;47.40;17.37;;;4.60;99.90;;;;;;4386406;28;658247;-71
2023/02/08 11:27:18;;;;;;;30.77;12.23;;;4.70;99.90;;;;;;4387130;28;657592;-71
2023/02/08 11:30:23;;;;;;;131.03;42.93;;;4.50;99.90;;;;;;4366109;28;657450;-71
2023/02/08 11:33:21;;;;;;;34.10;13.47;;;4.70;99.90;;;;;;4391633;28;658804;-71
2023/02/08 11:36:11;;;;;;;31.47;12.77;;;5.00;99.90;;;;;;4372206;28;658017;-71
2023/02/08 11:39:00;;;;;;;31.77;13.97;;;5.00;99.90;;;;;;4382009;28;658512;-70
2023/02/08 11:41:48;;;;;;;35.83;15.15;;;5.60;99.90;;;;;;4386271;28;657493;-71
2023/02/08 11:44:36;;;;;;;22.50;10.27;;;6.40;99.90;;;;;;4385432;28;657688;-71
2023/02/08 11:47:24;;;;;;;23.30;11.10;;;6.80;99.90;;;;;;4405040;28;657750;-71
2023/02/08 11:50:23;;;;;;;36.00;16.10;;;6.70;99.90;;;;;;4377560;28;657588;-71
2023/02/08 11:53:22;;;;;;;26.77;11.90;;;7.00;99.90;;;;;;4381853;28;657762;-71
2023/02/08 11:56:16;;;;;;;23.20;11.47;;;7.80;99.90;;;;;;4376984;28;657583;-71
2023/02/08 11:59:17;;;;;;;38.38;18.77;;;8.50;99.90;;;;;;4384069;28;658418;-71
2023/02/08 12:02:28;;;;;;;45.17;24.00;;;9.80;99.90;;;;;;4381733;28;657353;-72
2023/02/08 12:05:18;;;;;;;42.40;24.83;;;9.40;99.90;;;;;;4351163;28;658136;-72
2023/02/08 12:08:09;;;;;;;25.77;13.23;;;10.60;99.90;;;;;;4376238;28;657463;-72
2023/02/08 12:11:15;;;;;;;25.50;13.20;;;10.40;99.90;;;;;;4382727;28;658551;-71
2023/02/08 12:14:20;;;;;;;22.60;11.80;;;8.80;99.90;;;;;;4353075;28;659538;-70
2023/02/08 12:17:22;;;;;;;25.00;11.03;;;8.00;99.90;;;;;;4376956;28;657769;-71
2023/02/08 12:20:35;;;;;;;26.73;12.23;;;6.10;99.90;;;;;;4396918;28;658267;-70
2023/02/08 12:23:32;;;;;;;29.13;13.17;;;5.10;99.90;;;;;;4371026;28;658663;-71
2023/02/08 12:26:24;;;;;;;28.80;13.77;;;4.80;99.90;;;;;;4380039;28;658014;-70
2023/02/08 12:29:29;;;;;;;81.37;29.00;;;4.40;99.90;;;;;;4386295;28;657414;-70
2023/02/08 12:32:32;;;;;;;28.80;14.50;;;4.10;99.90;;;;;;4376725;28;658153;-70
2023/02/08 12:35:44;;;;;;;24.90;11.53;;;3.60;99.90;;;;;;4385058;28;657581;-71
2023/02/08 12:41:50;;;;;;;40.43;19.07;;;3.00;99.90;;;;;;4384394;28;658216;-70
2023/02/08 12:44:43;;;;;;;30.93;12.57;;;2.80;99.90;;;;;;4380986;28;658321;-70
2023/02/08 12:47:37;;;;;;;30.27;12.95;;;2.80;99.90;;;;;;4360559;28;657543;-70
2023/02/08 12:50:26;;;;;;;32.80;12.30;;;2.40;99.90;;;;;;4397518;28;658162;-70
2023/02/08 12:53:17;;;;;;;34.77;11.93;;;2.10;99.90;;;;;;4388438;28;657519;-70
2023/02/08 12:56:10;;;;;;;40.87;17.30;;;2.20;99.90;;;;;;4375617;28;657642;-70
2023/02/08 12:58:59;;;;;;;26.40;11.07;;;3.30;99.90;;;;;;4366092;28;657767;-70
2023/02/08 13:01:50;;;;;;;27.77;10.90;;;4.40;99.90;;;;;;4399377;28;657458;-71
2023/02/08 13:04:39;;;;;;;45.73;18.53;;;5.90;99.90;;;;;;4384500;28;659274;-71
2023/02/08 13:07:27;;;;;;;30.53;14.03;;;6.70;99.90;;;;;;4387255;28;658336;-71
2023/02/08 13:10:19;;;;;;;30.40;14.10;;;6.40;99.90;;;;;;4399692;28;658057;-71
2023/02/08 13:13:15;;;;;;;29.47;14.17;;;7.70;99.90;;;;;;4381804;28;657355;-72
2023/02/08 13:16:08;;;;;;;27.77;12.57;;;9.80;99.90;;;;;;4365037;28;657743;-71
2023/02/08 13:19:00;;;;;;;25.57;13.50;;;10.00;99.90;;;;;;4372734;28;658445;-71
2023/02/08 13:21:48;;;;;;;29.13;14.37;;;9.00;99.90;;;;;;4385437;28;659193;-71
2023/02/08 13:24:36;;;;;;;28.07;13.40;;;8.20;99.90;;;;;;4390426;28;657727;-71
2023/02/08 13:27:23;;;;;;;25.77;12.07;;;7.30;99.90;;;;;;4411268;28;658143;-71
2023/02/08 13:30:18;;;;;;;27.93;11.77;;;6.30;99.90;;;;;;4380417;28;657372;-71
2023/02/08 13:33:11;;;;;;;24.93;12.73;;;5.30;99.90;;;;;;4398111;28;657399;-71
2023/02/08 13:35:58;;;;;;;28.43;12.63;;;4.90;99.90;;;;;;4390897;28;658491;-71
2023/02/08 13:38:47;;;;;;;31.73;13.37;;;5.50;99.90;;;;;;4388243;28;657813;-71
2023/02/08 13:41:34;;;;;;;26.83;12.57;;;5.90;99.90;;;;;;4405684;28;657908;-71
2023/02/08 13:44:24;;;;;;;25.27;11.97;;;5.90;99.90;;;;;;4389820;28;657490;-71
2023/02/08 13:47:22;;;;;;;25.07;11.77;;;6.10;99.90;;;;;;4382885;28;658229;-71
2023/02/08 13:50:42;;;;;;;28.43;13.93;;;7.70;99.90;;;;;;4396988;28;657428;-71
2023/02/08 13:54:05;;;;;;;30.53;15.23;;;9.80;99.90;;;;;;4394252;28;657399;-72
2023/02/08 13:56:52;;;;;;;31.07;13.73;;;12.20;99.90;;;;;;4387385;28;657643;-71
2023/02/08 13:59:40;;;;;;;32.37;15.00;;;13.60;99.90;;;;;;4407659;28;659001;-71
2023/02/08 14:02:29;;;;;;;36.30;17.57;;;14.10;99.90;;;;;;4382107;28;659804;-71
2023/02/08 14:05:43;;;;;;;32.50;15.77;;;14.40;99.90;;;;;;4388555;28;659943;-72
2023/02/08 14:08:31;;;;;;;26.33;14.10;;;15.70;99.90;;;;;;4361357;28;659048;-71
2023/02/08 14:11:23;;;;;;;30.80;14.93;;;16.70;99.90;;;;;;4398991;28;658985;-72
2023/02/08 14:14:15;;;;;;;23.37;12.67;;;17.20;99.90;;;;;;4363297;28;659356;-72
2023/02/08 14:17:10;;;;;;;26.07;13.87;;;17.30;99.90;;;;;;4387213;28;658647;-72
2023/02/08 14:20:01;;;;;;;29.50;14.80;;;17.50;99.90;;;;;;4383752;28;659336;-72
2023/02/08 14:22:50;;;;;;;34.40;18.07;;;17.40;99.90;;;;;;4285937;28;658432;-73
2023/02/08 14:25:42;;;;;;;33.97;16.90;;;17.60;99.90;;;;;;4233752;28;659301;-73